»·PEaware :: UAL1070 KDEN-KORD

UAL1070 :: KDEN-KORD

FLIGHT INFORMATION

Flight Status: Arrived
Operator:
United Airlines
More flights by this operator :: More flights under this callsign
Pilot: Colin A. (19898)
Aircraft: BOEING 737-300
(B733)
More flights by this aircraft type
Origin: KDEN Denver Intl
United States
Destination: KORD Chicago-O'Hare Intl
United States
More flights between these airports :: More routes between these airports
Route: EEONS6 WYNDM HCT OBH FOD MYRRS FYTTE5
File this flight plan on PilotEdge
Remarks: RMK / SIMBRIEF
Altitude:
(Current/Filed)
35,000ft
Speed:
(Current/Filed)
422kts
Departed: 24-Aug-19 10:53 AM
Arrived: 24-Aug-19 12:41 PM
Distance/Time
Traveled:
769nm/1:48
Distance/Time
To Go:
Arrived

Flight Plot

Page will automatically refresh every two minutes.

Flight plan parsing failed; only flown route is shown


Map Options




Map Legend


Flown Route
Filed Route
Departure Airport
Arrival Airport
Navaid (VOR, NDB)
Fix

Horizontal Profiles

Position Reports

Time Latitude Longitude Heading Altitude Ground
Speed
24-Aug-19 10:17 39.859411 -104.677381 183 5438ft 0kts
24-Aug-19 10:18 39.859411 -104.677381 183 5438ft 0kts
24-Aug-19 10:19 39.859411 -104.677381 183 5438ft 0kts
24-Aug-19 10:20 39.859411 -104.677381 183 5438ft 0kts
24-Aug-19 10:21 39.859411 -104.677381 183 5438ft 0kts
24-Aug-19 10:22 39.859411 -104.677381 183 5438ft 0kts
24-Aug-19 10:23 39.859411 -104.677381 183 5438ft 0kts
24-Aug-19 10:24 39.859411 -104.677381 183 5438ft 0kts
24-Aug-19 10:25 39.859411 -104.677381 183 5438ft 0kts
24-Aug-19 10:26 39.859411 -104.677381 183 5438ft 0kts
24-Aug-19 10:27 39.859411 -104.677381 183 5438ft 0kts
24-Aug-19 10:28 39.859411 -104.677381 183 5438ft 0kts
24-Aug-19 10:29 39.859411 -104.677381 183 5438ft 0kts
24-Aug-19 10:30 39.859411 -104.677381 183 5438ft 0kts
24-Aug-19 10:31 39.859411 -104.677381 183 5438ft 0kts
24-Aug-19 10:32 39.859411 -104.677381 183 5438ft 0kts
24-Aug-19 10:33 39.859411 -104.677381 183 5438ft 0kts
24-Aug-19 10:34 39.859411 -104.677381 183 5438ft 0kts
24-Aug-19 10:35 39.859411 -104.677381 183 5438ft 0kts
24-Aug-19 10:36 39.859411 -104.677381 183 5438ft 0kts
24-Aug-19 10:37 39.859411 -104.677381 183 5438ft 0kts
24-Aug-19 10:38 39.859411 -104.677381 183 5438ft 0kts
24-Aug-19 10:39 39.859412 -104.677381 183 5438ft 0kts
24-Aug-19 10:40 39.859966 -104.677504 139 5438ft 2kts
24-Aug-19 10:41 39.860098 -104.678137 90 5438ft 0kts
24-Aug-19 10:42 39.860098 -104.678135 90 5438ft 0kts
24-Aug-19 10:43 39.860098 -104.678077 90 5438ft 3kts
24-Aug-19 10:44 39.860086 -104.673752 90 5438ft 14kts
24-Aug-19 10:45 39.860645 -104.668541 86 5438ft 14kts
24-Aug-19 10:46 39.860252 -104.664985 100 5438ft 0kts
24-Aug-19 10:47 39.860208 -104.664378 92 5438ft 10kts
24-Aug-19 10:48 39.864857 -104.662245 1 5438ft 31kts
24-Aug-19 10:49 39.875028 -104.662113 0 5438ft 31kts
24-Aug-19 10:50 39.876374 -104.662109 1 5438ft 0kts
24-Aug-19 10:51 39.877635 -104.661365 85 5438ft 16kts
24-Aug-19 10:52 39.877434 -104.626725 89 5439ft 168kts
24-Aug-19 10:53 39.882070 -104.555739 71 6784ft 222kts
24-Aug-19 10:54 39.902513 -104.466628 72 8296ft 288kts
24-Aug-19 10:55 39.925959 -104.361445 72 10413ft 322kts
24-Aug-19 10:56 39.950293 -104.238185 79 11377ft 383kts
24-Aug-19 10:57 39.977204 -104.100093 80 12647ft 400kts
24-Aug-19 10:58 39.993788 -103.952969 80 14839ft 419kts
24-Aug-19 10:59 40.016030 -103.800583 76 16794ft 437kts
24-Aug-19 11:00 40.042207 -103.642564 75 18752ft 452kts
24-Aug-19 11:01 40.068944 -103.479526 75 20614ft 465kts
24-Aug-19 11:02 40.095977 -103.312603 75 22388ft 476kts
24-Aug-19 11:03 40.123477 -103.141282 76 23938ft 485kts
24-Aug-19 11:04 40.150855 -102.968625 76 25393ft 491kts
24-Aug-19 11:06 40.178189 -102.794285 76 27134ft 487kts
24-Aug-19 11:07 40.205011 -102.621455 76 28700ft 484kts
24-Aug-19 11:08 40.231462 -102.449246 76 30115ft 481kts
24-Aug-19 11:09 40.257490 -102.277989 76 31406ft 478kts
24-Aug-19 11:10 40.283112 -102.107677 76 32552ft 475kts
24-Aug-19 11:11 40.308485 -101.937187 76 33521ft 475kts
24-Aug-19 11:12 40.333406 -101.767929 76 34405ft 474kts
24-Aug-19 11:13 40.358079 -101.598614 76 35067ft 476kts
24-Aug-19 11:14 40.382802 -101.427080 76 35074ft 477kts
24-Aug-19 11:15 40.407106 -101.256686 76 35074ft 473kts
24-Aug-19 11:16 40.430964 -101.086766 76 35065ft 474kts
24-Aug-19 11:17 40.456128 -100.917058 65 35029ft 469kts
24-Aug-19 11:18 40.512712 -100.764374 58 35054ft 466kts
24-Aug-19 11:19 40.569974 -100.611748 59 35046ft 464kts
24-Aug-19 11:20 40.626694 -100.458839 59 35039ft 464kts
24-Aug-19 11:21 40.682901 -100.306247 59 35034ft 464kts
24-Aug-19 11:22 40.739114 -100.152746 59 35031ft 464kts
24-Aug-19 11:23 40.795050 -99.999163 59 35026ft 465kts
24-Aug-19 11:23 40.841584 -99.870763 59 35022ft 466kts
24-Aug-19 11:25 40.906740 -99.690009 59 35021ft 468kts
24-Aug-19 11:26 40.962429 -99.534582 59 35020ft 468kts
24-Aug-19 11:26 41.008746 -99.404689 59 35022ft 469kts
24-Aug-19 11:28 41.073568 -99.221900 59 35023ft 470kts
24-Aug-19 11:28 41.119782 -99.090844 59 35024ft 470kts
24-Aug-19 11:29 41.175091 -98.933211 59 35022ft 472kts
24-Aug-19 11:31 41.239527 -98.748436 59 35014ft 473kts
24-Aug-19 11:31 41.285568 -98.615666 59 35012ft 474kts
24-Aug-19 11:32 41.340698 -98.455858 59 35011ft 476kts
24-Aug-19 11:33 41.395348 -98.294908 60 35009ft 478kts
24-Aug-19 11:34 41.448239 -98.132218 60 35009ft 479kts
24-Aug-19 11:35 41.501091 -97.968759 60 35006ft 480kts
24-Aug-19 11:36 41.554025 -97.804825 60 35006ft 483kts
24-Aug-19 11:37 41.606980 -97.639682 60 35002ft 482kts
24-Aug-19 11:38 41.659314 -97.475444 61 34999ft 482kts
24-Aug-19 11:39 41.711700 -97.310058 61 34991ft 483kts
24-Aug-19 11:40 41.764013 -97.143824 61 34989ft 483kts
24-Aug-19 11:41 41.815916 -96.977851 62 34990ft 483kts
24-Aug-19 11:42 41.867652 -96.811432 62 34987ft 484kts
24-Aug-19 11:43 41.919314 -96.644176 62 34984ft 486kts
24-Aug-19 11:44 41.970824 -96.476348 62 34974ft 488kts
24-Aug-19 11:45 42.022325 -96.307467 62 34969ft 489kts
24-Aug-19 11:46 42.073879 -96.137332 62 34969ft 490kts
24-Aug-19 11:47 42.124999 -95.967506 63 34969ft 490kts
24-Aug-19 11:48 42.175965 -95.797095 63 34971ft 489kts
24-Aug-19 11:49 42.226511 -95.626968 63 34976ft 488kts
24-Aug-19 11:50 42.276796 -95.456614 63 34974ft 487kts
24-Aug-19 11:51 42.326665 -95.286530 64 34970ft 486kts
24-Aug-19 11:52 42.376072 -95.116913 64 34966ft 485kts
24-Aug-19 11:53 42.425287 -94.946849 64 34966ft 485kts
24-Aug-19 11:54 42.474156 -94.776823 64 34969ft 484kts
24-Aug-19 11:55 42.522775 -94.606538 64 34974ft 485kts
24-Aug-19 11:56 42.571248 -94.435633 65 34982ft 487kts
24-Aug-19 11:57 42.611697 -94.260540 88 34989ft 493kts
24-Aug-19 11:58 42.605139 -94.074012 92 34990ft 497kts
24-Aug-19 11:59 42.598460 -93.886459 92 34990ft 496kts
24-Aug-19 12:00 42.592066 -93.701041 92 34995ft 496kts
24-Aug-19 12:01 42.585473 -93.514794 92 35001ft 496kts
24-Aug-19 12:02 42.578582 -93.327837 92 35009ft 495kts
24-Aug-19 12:03 42.571413 -93.141338 92 35014ft 494kts
24-Aug-19 12:04 42.563960 -92.955169 92 35013ft 493kts
24-Aug-19 12:05 42.556207 -92.769181 92 35012ft 494kts
24-Aug-19 12:06 42.548149 -92.582996 93 35010ft 495kts
24-Aug-19 12:07 42.539764 -92.396456 93 35009ft 495kts
24-Aug-19 12:08 42.531080 -92.209996 93 35011ft 496kts
24-Aug-19 12:09 42.522716 -92.022724 89 35013ft 496kts
24-Aug-19 12:10 42.524866 -91.836079 88 35022ft 497kts
24-Aug-19 12:11 42.526076 -91.649007 88 35021ft 496kts
24-Aug-19 12:12 42.526901 -91.461525 89 35024ft 498kts
24-Aug-19 12:13 42.527200 -91.274219 89 35027ft 495kts
24-Aug-19 12:14 42.526999 -91.087022 89 35034ft 496kts
24-Aug-19 12:15 42.526642 -90.900155 90 35041ft 496kts
24-Aug-19 12:16 42.525896 -90.712602 90 35044ft 497kts
24-Aug-19 12:17 42.524605 -90.525078 91 35048ft 500kts
24-Aug-19 12:18 42.523035 -90.336450 91 35048ft 499kts
24-Aug-19 12:19 42.521684 -90.148104 91 35027ft 500kts
24-Aug-19 12:20 42.519846 -89.949550 90 33208ft 542kts
24-Aug-19 12:21 42.516662 -89.746990 93 31219ft 550kts
24-Aug-19 12:22 42.493063 -89.550815 100 28558ft 518kts
24-Aug-19 12:23 42.467584 -89.357996 99 26046ft 510kts
24-Aug-19 12:24 42.444747 -89.175890 100 23411ft 475kts
24-Aug-19 12:25 42.423463 -89.008955 100 22697ft 418kts
24-Aug-19 12:26 42.400836 -88.849981 100 18506ft 449kts
24-Aug-19 12:27 42.384037 -88.689614 100 13188ft 410kts
24-Aug-19 12:28 42.362714 -88.545572 113 11018ft 384kts
24-Aug-19 12:29 42.277595 -88.497984 186 11067ft 339kts
24-Aug-19 12:30 42.187521 -88.504066 185 11046ft 308kts
24-Aug-19 12:31 42.103446 -88.507929 184 11063ft 304kts
24-Aug-19 12:32 42.021874 -88.506325 157 9853ft 292kts
24-Aug-19 12:33 41.999988 -88.412156 86 8104ft 278kts
24-Aug-19 12:34 42.002355 -88.309176 88 6201ft 277kts
24-Aug-19 12:35 42.002783 -88.205881 89 4668ft 246kts
24-Aug-19 12:36 42.002815 -88.122546 88 3491ft 219kts
24-Aug-19 12:37 42.002814 -88.043359 89 2381ft 205kts
24-Aug-19 12:38 42.002843 -87.971416 90 1353ft 172kts
24-Aug-19 12:39 42.002863 -87.911148 90 676ft 123kts
24-Aug-19 12:40 42.001410 -87.899058 187 675ft 10kts
24-Aug-19 12:41 41.997115 -87.900863 284 675ft 17kts
24-Aug-19 12:42 41.996513 -87.909297 238 675ft 26kts
24-Aug-19 12:43 41.993588 -87.907856 141 675ft 30kts
24-Aug-19 12:44 41.984934 -87.900489 176 675ft 31kts
24-Aug-19 12:45 41.982727 -87.904099 223 675ft 0kts
24-Aug-19 12:46 41.982330 -87.904668 178 675ft 4kts
24-Aug-19 12:47 41.982101 -87.904668 181 675ft 0kts
24-Aug-19 12:48 41.982101 -87.904668 181 675ft 0kts
24-Aug-19 12:49 41.982101 -87.904668 181 675ft 0kts
24-Aug-19 12:50 41.982101 -87.904668 181 676ft 0kts

Navigation Log

Ident Type
Flight plan parsing failed, navigation log unavailable